createdAt,value
2018-08-16T00:01:14.477Z,96127.00
2018-08-16T00:03:46.405Z,96131.00
2018-08-16T00:06:17.068Z,96133.00
2018-08-16T00:08:48.802Z,96134.00
2018-08-16T00:11:19.208Z,96131.00
2018-08-16T00:13:49.544Z,96130.00
2018-08-16T00:16:20.152Z,96129.00
2018-08-16T00:18:51.037Z,96125.00
2018-08-16T00:21:21.926Z,96123.00
2018-08-16T00:23:53.251Z,96115.00
2018-08-16T00:26:24.603Z,96121.00
2018-08-16T00:28:55.755Z,96123.00
2018-08-16T00:31:26.248Z,96113.00
2018-08-16T00:33:57.988Z,96117.00
2018-08-16T00:36:28.513Z,96115.00
2018-08-16T00:38:58.942Z,96114.00
2018-08-16T00:41:30.183Z,96117.00
2018-08-16T00:44:00.524Z,96109.00
2018-08-16T00:46:30.990Z,96118.00
2018-08-16T00:49:01.518Z,96104.00
2018-08-16T00:51:32.304Z,96107.00
2018-08-16T00:54:02.998Z,96103.00
2018-08-16T00:56:33.687Z,96103.00
2018-08-16T00:59:04.314Z,96099.00
2018-08-16T01:01:34.850Z,96098.00
2018-08-16T01:04:05.258Z,96097.00
2018-08-16T01:06:35.812Z,96093.00
2018-08-16T01:09:09.635Z,96102.00
2018-08-16T01:11:40.118Z,96097.00
2018-08-16T01:14:11.328Z,96090.00
2018-08-16T01:16:41.608Z,96088.00
2018-08-16T01:19:11.982Z,96095.00
2018-08-16T01:21:42.341Z,96087.00
2018-08-16T01:24:17.251Z,96089.00
2018-08-16T01:26:48.122Z,96089.00
2018-08-16T01:29:18.433Z,96090.00
2018-08-16T01:31:48.825Z,96082.00
2018-08-16T01:34:19.137Z,96080.00
2018-08-16T01:36:49.450Z,96075.00
2018-08-16T01:39:19.730Z,96079.00
2018-08-16T01:41:50.035Z,96068.00
2018-08-16T01:44:20.754Z,96075.00
2018-08-16T01:46:51.081Z,96074.00
2018-08-16T01:49:33.493Z,96067.00
2018-08-16T01:52:03.917Z,96062.00
2018-08-16T01:54:34.551Z,96056.00
2018-08-16T01:57:04.820Z,96065.00
2018-08-16T01:59:35.111Z,96060.00
2018-08-16T02:02:05.410Z,96056.00
2018-08-16T02:04:35.714Z,96058.00
2018-08-16T02:07:06.087Z,96057.00
2018-08-16T02:09:36.426Z,95983.00
2018-08-16T02:12:07.295Z,96054.00
2018-08-16T02:14:37.594Z,96061.00
2018-08-16T02:17:07.851Z,96048.00
2018-08-16T02:19:38.150Z,96055.00
2018-08-16T02:22:08.406Z,96057.00
2018-08-16T02:24:38.705Z,96053.00
2018-08-16T02:27:09.027Z,96061.00
2018-08-16T02:29:39.339Z,96055.00
2018-08-16T02:32:09.642Z,96047.00
2018-08-16T02:34:39.902Z,96048.00
2018-08-16T02:37:10.169Z,96048.00
2018-08-16T02:39:40.514Z,96049.00
2018-08-16T02:42:10.790Z,96033.00
2018-08-16T02:44:41.080Z,96029.00
2018-08-16T02:47:11.483Z,96037.00
2018-08-16T02:49:41.757Z,96042.00
2018-08-16T02:52:12.018Z,96031.00
2018-08-16T02:54:42.391Z,96035.00
2018-08-16T02:57:12.627Z,96031.00
2018-08-16T02:59:42.892Z,96036.00
2018-08-16T03:02:13.178Z,96030.00
2018-08-16T03:04:43.467Z,96027.00
2018-08-16T03:07:13.778Z,96038.00
2018-08-16T03:09:44.089Z,96029.00
2018-08-16T03:12:15.051Z,96029.00
2018-08-16T03:14:45.385Z,96030.00
2018-08-16T03:17:16.015Z,96024.00
2018-08-16T03:19:46.746Z,96030.00
2018-08-16T03:22:17.143Z,96023.00
2018-08-16T03:24:47.650Z,96024.00
2018-08-16T03:27:17.924Z,96022.00
2018-08-16T03:29:48.167Z,96020.00
2018-08-16T03:32:18.438Z,96023.00
2018-08-16T03:34:48.695Z,96019.00
2018-08-16T03:37:18.982Z,96016.00
2018-08-16T03:39:49.502Z,96017.00
2018-08-16T03:42:19.979Z,96015.00
2018-08-16T03:44:50.235Z,96013.00
2018-08-16T03:47:20.572Z,96006.00
2018-08-16T03:49:51.070Z,96010.00
2018-08-16T03:52:21.359Z,96019.00
2018-08-16T03:54:59.884Z,96009.00
2018-08-16T03:57:31.426Z,96007.00
2018-08-16T04:00:01.790Z,96006.00
2018-08-16T04:02:32.130Z,96011.00
2018-08-16T04:05:02.462Z,96004.00
2018-08-16T04:07:32.878Z,96006.00
2018-08-16T04:10:03.362Z,96012.00
2018-08-16T04:12:33.658Z,95924.00
2018-08-16T04:15:04.049Z,96016.00
2018-08-16T04:17:37.160Z,96006.00
2018-08-16T04:20:07.931Z,96024.00
2018-08-16T04:22:38.222Z,96013.00
2018-08-16T04:25:08.565Z,96017.00
2018-08-16T04:27:38.843Z,96015.00
2018-08-16T04:30:09.186Z,96017.00
2018-08-16T04:32:39.430Z,96015.00
2018-08-16T04:35:09.806Z,96020.00
2018-08-16T04:37:40.014Z,96024.00
2018-08-16T04:40:10.357Z,96019.00
2018-08-16T04:42:40.742Z,96021.00
2018-08-16T04:45:11.086Z,96017.00
2018-08-16T04:47:41.545Z,96019.00
2018-08-16T04:50:13.072Z,95940.00
2018-08-16T04:52:43.532Z,96022.00
2018-08-16T04:55:14.219Z,96017.00
2018-08-16T04:57:45.033Z,96015.00
2018-08-16T05:00:15.290Z,96016.00
2018-08-16T05:02:50.706Z,96020.00
2018-08-16T05:05:21.181Z,96015.00
2018-08-16T05:07:51.466Z,96017.00
2018-08-16T05:10:21.954Z,96015.00
2018-08-16T05:12:52.180Z,96018.00
2018-08-16T05:15:22.970Z,96021.00
2018-08-16T05:17:53.226Z,96022.00
2018-08-16T05:20:23.954Z,96027.00
2018-08-16T05:22:54.306Z,96017.00
2018-08-16T05:25:24.734Z,96018.00
2018-08-16T05:27:55.111Z,96008.00
2018-08-16T05:30:25.398Z,95927.00
2018-08-16T05:32:55.729Z,96012.00
2018-08-16T05:35:26.061Z,96012.00
2018-08-16T05:37:56.323Z,96014.00
2018-08-16T05:40:26.687Z,96018.00
2018-08-16T05:42:57.139Z,96012.00
2018-08-16T05:45:27.699Z,96008.00
2018-08-16T05:47:58.073Z,96008.00
2018-08-16T05:50:30.014Z,96004.00
2018-08-16T05:53:00.739Z,96002.00
2018-08-16T05:55:31.597Z,96005.00
2018-08-16T05:58:01.889Z,96012.00
2018-08-16T06:00:32.654Z,96007.00
2018-08-16T06:03:03.119Z,95999.00
2018-08-16T06:05:33.383Z,96011.00
2018-08-16T06:08:03.710Z,95998.00
2018-08-16T06:10:33.973Z,96003.00
2018-08-16T06:13:04.317Z,95994.00
2018-08-16T06:15:34.659Z,95996.00
2018-08-16T06:18:05.414Z,95995.00
2018-08-16T06:20:35.676Z,95996.00
2018-08-16T06:23:05.975Z,95996.00
2018-08-16T06:25:36.313Z,95996.00
2018-08-16T06:28:06.835Z,95987.00
2018-08-16T06:30:37.166Z,95988.00
2018-08-16T06:33:07.410Z,95985.00
2018-08-16T06:35:37.734Z,95981.00
2018-08-16T06:38:08.306Z,96000.00
2018-08-16T06:40:38.742Z,95982.00
2018-08-16T06:43:09.030Z,95905.00
2018-08-16T06:45:39.348Z,95992.00
2018-08-16T06:48:09.689Z,95985.00
2018-08-16T06:50:40.014Z,95984.00
2018-08-16T06:53:10.310Z,95976.00
2018-08-16T06:55:40.613Z,95979.00
2018-08-16T06:58:10.874Z,95977.00
2018-08-16T07:00:41.216Z,95973.00
2018-08-16T07:03:11.831Z,95972.00
2018-08-16T07:05:42.243Z,95971.00
2018-08-16T07:08:13.018Z,95963.00
2018-08-16T07:10:43.285Z,95970.00
2018-08-16T07:13:13.630Z,95966.00
2018-08-16T07:15:43.947Z,95964.00
2018-08-16T07:18:14.575Z,95961.00
2018-08-16T07:20:45.133Z,95956.00
2018-08-16T07:23:15.993Z,95956.00
2018-08-16T07:25:46.316Z,95950.00
2018-08-16T07:28:16.614Z,95955.00
2018-08-16T07:30:46.981Z,95949.00
2018-08-16T07:33:17.233Z,95948.00
2018-08-16T07:35:48.082Z,95976.00
2018-08-16T07:38:18.363Z,95943.00
2018-08-16T07:40:48.920Z,95951.00
2018-08-16T07:43:19.173Z,95945.00
2018-08-16T07:45:49.575Z,95943.00
2018-08-16T07:48:19.963Z,95943.00
2018-08-16T07:50:50.284Z,95947.00
2018-08-16T07:53:20.864Z,95945.00
2018-08-16T07:55:51.174Z,95943.00
2018-08-16T07:58:21.982Z,95952.00
2018-08-16T08:00:52.282Z,95950.00
2018-08-16T08:03:22.976Z,95954.00
2018-08-16T08:05:53.263Z,95949.00
2018-08-16T08:08:23.644Z,95944.00
2018-08-16T08:10:53.975Z,95947.00
2018-08-16T08:13:24.256Z,95948.00
2018-08-16T08:15:54.603Z,95955.00
2018-08-16T08:18:25.190Z,95950.00
2018-08-16T08:20:55.517Z,95950.00
2018-08-16T08:23:25.794Z,95946.00
2018-08-16T08:25:56.142Z,95941.00
2018-08-16T08:28:26.419Z,95944.00
2018-08-16T08:30:56.719Z,95939.00
2018-08-16T08:33:26.973Z,95939.00
2018-08-16T08:36:14.290Z,95939.00
2018-08-16T08:38:45.129Z,95933.00
2018-08-16T08:41:15.895Z,95932.00
2018-08-16T08:44:19.942Z,95934.00
2018-08-16T08:46:51.319Z,95936.00
2018-08-16T08:49:21.957Z,95928.00
2018-08-16T08:51:53.172Z,95929.00
2018-08-16T08:54:47.367Z,95929.00
2018-08-16T08:57:35.548Z,95931.00
2018-08-16T09:00:07.625Z,95923.00
2018-08-16T09:02:38.155Z,95918.00
2018-08-16T09:05:08.634Z,95921.00
2018-08-16T09:07:38.981Z,95923.00
2018-08-16T09:11:23.352Z,95921.00
2018-08-16T09:14:10.281Z,95923.00
2018-08-16T09:16:41.755Z,95920.00
2018-08-16T17:19:06.792Z,95634.00
2018-08-16T17:21:38.761Z,95640.00
2018-08-16T17:24:09.616Z,95632.00
2018-08-16T17:26:41.026Z,95633.00
2018-08-16T17:29:12.106Z,95632.00
2018-08-16T17:31:44.599Z,95627.00
2018-08-16T17:34:16.253Z,95631.00
2018-08-16T17:36:49.224Z,95638.00
2018-08-16T17:39:20.726Z,95638.00
2018-08-16T17:41:51.328Z,95629.00
2018-08-16T17:44:21.671Z,95632.00
2018-08-16T17:47:04.890Z,95628.00
2018-08-16T17:49:35.312Z,95626.00
2018-08-16T17:52:08.119Z,95628.00
2018-08-16T17:54:39.048Z,95636.00
2018-08-16T17:57:09.583Z,95634.00
2018-08-16T17:59:41.434Z,95631.00
2018-08-16T18:02:12.623Z,95630.00
2018-08-16T18:04:43.151Z,95630.00
2018-08-16T18:07:14.525Z,95559.00
2018-08-16T18:09:45.146Z,95632.00
2018-08-16T18:12:15.761Z,95627.00
2018-08-16T18:14:46.359Z,95633.00
2018-08-16T18:17:16.598Z,95633.00
2018-08-16T18:19:46.910Z,95639.00
2018-08-16T18:22:17.555Z,95638.00
2018-08-16T18:24:48.217Z,95637.00
2018-08-16T18:27:18.847Z,95644.00
2018-08-16T18:29:49.789Z,95639.00
2018-08-16T18:32:20.389Z,95645.00
2018-08-16T18:34:50.970Z,95650.00
2018-08-16T18:37:27.399Z,95656.00
2018-08-16T18:39:57.731Z,95655.00
2018-08-16T18:42:28.149Z,95296.00
2018-08-16T18:44:58.306Z,95655.00
2018-08-16T18:47:28.930Z,95652.00
2018-08-16T18:49:59.182Z,95663.00
2018-08-16T18:52:29.778Z,95666.00
2018-08-16T18:55:00.079Z,95667.00
2018-08-16T18:57:30.388Z,95665.00
2018-08-16T19:00:00.650Z,95671.00
2018-08-16T19:02:30.895Z,95578.00
2018-08-16T19:05:01.250Z,95672.00
2018-08-16T19:07:31.509Z,95665.00
2018-08-16T19:10:02.046Z,95666.00
2018-08-16T19:12:32.335Z,95659.00
2018-08-16T19:15:03.358Z,95661.00
2018-08-16T19:17:33.650Z,95668.00
2018-08-16T19:20:04.151Z,95676.00
2018-08-16T19:22:34.394Z,95670.00
2018-08-16T19:25:05.841Z,95667.00
2018-08-16T19:27:36.162Z,95672.00
2018-08-16T19:30:07.756Z,95671.00
2018-08-16T19:32:38.207Z,95675.00
2018-08-16T19:35:08.509Z,95669.00
2018-08-16T19:37:38.785Z,95669.00
2018-08-16T19:40:09.113Z,95689.00
2018-08-16T19:42:39.399Z,95683.00
2018-08-16T19:45:09.890Z,95677.00
2018-08-16T19:47:40.286Z,95684.00
2018-08-16T19:50:11.578Z,95679.00
2018-08-16T19:52:42.018Z,95677.00
2018-08-16T19:55:13.637Z,95671.00
2018-08-16T19:57:43.977Z,95673.00
2018-08-16T20:00:15.662Z,95679.00
2018-08-16T20:02:46.483Z,95675.00
2018-08-16T20:05:16.976Z,95673.00
2018-08-16T20:07:47.396Z,95673.00
2018-08-16T20:10:18.265Z,95673.00
2018-08-16T20:12:48.818Z,95666.00
2018-08-16T20:15:19.546Z,95665.00
2018-08-16T20:17:50.219Z,95663.00
2018-08-16T20:20:20.694Z,95663.00
2018-08-16T20:22:51.194Z,95662.00
2018-08-16T20:25:22.069Z,95657.00
2018-08-16T20:27:52.599Z,95664.00
2018-08-16T20:30:23.309Z,95661.00
2018-08-16T20:32:53.798Z,95662.00
2018-08-16T20:35:24.530Z,95667.00
2018-08-16T20:37:55.067Z,95665.00
2018-08-16T20:40:25.685Z,95662.00
2018-08-16T20:42:57.581Z,95669.00
2018-08-16T20:45:28.599Z,95665.00
2018-08-16T20:47:59.090Z,95667.00
2018-08-16T20:50:30.137Z,95669.00
2018-08-16T20:53:01.423Z,95672.00
2018-08-16T20:55:32.873Z,95677.00
2018-08-16T20:58:04.187Z,95680.00
2018-08-16T21:00:36.209Z,95681.00
2018-08-16T21:03:07.624Z,95679.00
2018-08-16T21:05:38.774Z,95688.00
2018-08-16T21:08:09.695Z,95684.00
2018-08-16T21:10:40.876Z,95687.00
2018-08-16T21:13:12.273Z,95682.00
2018-08-16T21:15:44.116Z,95675.00
2018-08-16T21:18:15.878Z,95681.00
2018-08-16T21:20:47.315Z,95685.00
2018-08-16T21:23:18.872Z,95682.00
2018-08-16T21:25:50.367Z,95687.00
2018-08-16T21:28:21.878Z,95684.00
2018-08-16T21:30:53.671Z,95682.00
2018-08-16T21:33:24.710Z,95685.00
2018-08-16T21:35:56.849Z,95691.00
2018-08-16T21:38:28.016Z,95679.00
2018-08-16T21:40:59.314Z,95678.00
2018-08-16T21:43:31.418Z,95689.00
2018-08-16T21:46:02.919Z,95686.00
2018-08-16T21:48:34.283Z,95690.00
2018-08-16T21:51:04.965Z,95695.00
2018-08-16T21:53:37.195Z,95701.00
2018-08-16T21:56:08.995Z,95693.00
2018-08-16T21:58:40.818Z,95694.00
2018-08-16T22:01:11.743Z,95683.00
2018-08-16T22:03:43.045Z,95688.00
2018-08-16T22:06:29.688Z,95686.00
2018-08-16T22:09:00.980Z,95687.00
2018-08-16T22:11:31.524Z,95688.00
2018-08-16T22:14:02.469Z,95603.00
2018-08-16T22:16:33.278Z,95684.00
2018-08-16T22:19:03.727Z,95687.00
2018-08-16T22:21:35.198Z,95685.00
2018-08-16T22:24:06.179Z,95686.00
2018-08-16T22:26:36.695Z,95690.00
2018-08-16T22:29:08.587Z,95693.00
2018-08-16T22:31:40.910Z,95688.00
2018-08-16T22:34:17.523Z,95686.00
2018-08-16T22:36:49.437Z,95695.00
2018-08-16T22:39:22.066Z,95690.00
2018-08-16T22:41:55.373Z,95681.00
2018-08-16T22:44:27.461Z,95693.00
2018-08-16T22:46:59.572Z,95687.00
2018-08-16T22:49:32.623Z,95690.00
2018-08-16T22:52:04.544Z,95684.00
2018-08-16T22:54:36.433Z,95683.00
2018-08-16T22:57:08.573Z,95681.00
2018-08-16T22:59:40.472Z,95681.00
2018-08-16T23:02:13.288Z,95686.00
2018-08-16T23:04:45.823Z,95684.00
2018-08-16T23:07:17.612Z,95685.00
2018-08-16T23:09:49.676Z,95682.00
2018-08-16T23:12:23.189Z,95680.00
2018-08-16T23:14:57.482Z,95684.00
2018-08-16T23:17:29.298Z,95679.00
2018-08-16T23:20:02.426Z,95680.00
2018-08-16T23:22:34.933Z,95670.00
2018-08-16T23:25:07.492Z,95668.00
2018-08-16T23:27:39.805Z,95669.00
2018-08-16T23:30:14.975Z,95674.00
2018-08-16T23:32:46.662Z,95661.00
2018-08-16T23:35:18.355Z,95669.00
2018-08-16T23:37:53.316Z,95671.00
2018-08-16T23:40:25.263Z,95665.00
2018-08-16T23:42:56.495Z,95670.00
2018-08-16T23:45:27.546Z,95659.00
2018-08-16T23:48:39.203Z,95666.00
2018-08-16T23:51:10.026Z,95661.00
2018-08-16T23:53:41.680Z,95656.00
2018-08-16T23:56:14.158Z,95658.00
2018-08-16T23:58:47.315Z,95654.00
